Time;durP1;ratioP1;P1;durP2;ratioP2;P2;SDS_P1;SDS_P2;PMS_P1;PMS_P2;Temp;Humidity;BMP_temperature;BMP_pressure;BME280_temperature;BME280_humidity;BME280_pressure;Samples;Min_cycle;Max_cycle;Signal;HPM_P1;HPM_P2
2023/06/28 00:01:14;;;;;;;4.50;1.48;;;;;;;;;;5032382;28;20214;-85
2023/06/28 00:03:41;;;;;;;4.05;1.50;;;;;;;;;;5031672;28;20321;-86
2023/06/28 00:06:08;;;;;;;3.45;1.63;;;;;;;;;;5031963;28;20209;-85
2023/06/28 00:08:35;;;;;;;3.45;1.70;;;;;;;;;;5031237;28;20234;-86
2023/06/28 00:11:02;;;;;;;4.50;1.58;;;;;;;;;;5032121;28;20194;-86
2023/06/28 00:13:29;;;;;;;1.60;1.30;;;;;;;;;;5031250;28;20238;-86
2023/06/28 00:15:56;;;;;;;2.80;1.60;;;;;;;;;;5031703;28;20218;-86
2023/06/28 00:18:25;;;;;;;2.83;1.45;;;;;;;;;;5031101;28;20269;-86
2023/06/28 00:20:52;;;;;;;3.65;1.70;;;;;;;;;;5031543;28;20211;-86
2023/06/28 00:23:19;;;;;;;6.40;1.58;;;;;;;;;;5030590;28;20234;-85
2023/06/28 00:25:46;;;;;;;2.25;1.45;;;;;;;;;;5031463;28;20242;-86
2023/06/28 00:28:15;;;;;;;3.30;1.50;;;;;;;;;;5031321;28;20205;-85
2023/06/28 00:30:42;;;;;;;3.92;1.65;;;;;;;;;;5031318;28;20211;-85
2023/06/28 00:33:10;;;;;;;4.05;1.48;;;;;;;;;;4994427;28;1041331;-86
2023/06/28 00:35:38;;;;;;;2.75;1.60;;;;;;;;;;5032302;28;20207;-86
2023/06/28 00:38:05;;;;;;;3.28;1.60;;;;;;;;;;5031567;28;20624;-85
2023/06/28 00:40:32;;;;;;;4.07;1.83;;;;;;;;;;5031946;28;20203;-86
2023/06/28 00:42:59;;;;;;;3.38;1.80;;;;;;;;;;5032279;28;20222;-86
2023/06/28 00:45:26;;;;;;;2.92;1.50;;;;;;;;;;5031626;28;20235;-86
2023/06/28 00:47:54;;;;;;;3.20;1.50;;;;;;;;;;5031775;28;20229;-86
2023/06/28 00:50:21;;;;;;;2.53;1.50;;;;;;;;;;5031516;28;20242;-86
2023/06/28 00:52:49;;;;;;;3.30;1.63;;;;;;;;;;5032070;28;20234;-85
2023/06/28 00:55:17;;;;;;;5.68;1.50;;;;;;;;;;5031351;28;20259;-86
2023/06/28 00:57:44;;;;;;;1.75;1.58;;;;;;;;;;5031772;28;20701;-85
2023/06/28 01:00:12;;;;;;;2.25;1.50;;;;;;;;;;5028052;28;20230;-86
2023/06/28 01:02:44;;;;;;;2.60;1.58;;;;;;;;;;5031882;28;20249;-85
2023/06/28 01:05:11;;;;;;;1.92;1.58;;;;;;;;;;5037698;28;20234;-86
2023/06/28 01:07:39;;;;;;;2.22;1.60;;;;;;;;;;5030810;28;20210;-86
2023/06/28 01:10:08;;;;;;;2.13;1.70;;;;;;;;;;5031340;28;20253;-86
2023/06/28 01:12:36;;;;;;;2.83;1.65;;;;;;;;;;5031611;28;20230;-86
2023/06/28 01:15:03;;;;;;;2.75;1.40;;;;;;;;;;5031564;28;20230;-86
2023/06/28 01:17:30;;;;;;;1.60;1.50;;;;;;;;;;5031802;28;20363;-86
2023/06/28 01:19:57;;;;;;;4.47;1.80;;;;;;;;;;5031231;28;20246;-86
2023/06/28 01:22:26;;;;;;;2.58;1.60;;;;;;;;;;5031617;28;20229;-85
2023/06/28 01:24:56;;;;;;;3.50;2.10;;;;;;;;;;5042658;28;20226;-86
2023/06/28 01:27:23;;;;;;;2.00;1.60;;;;;;;;;;5051947;28;20202;-85
2023/06/28 01:29:56;;;;;;;2.67;1.88;;;;;;;;;;5051368;28;20263;-86
2023/06/28 01:32:24;;;;;;;2.28;1.90;;;;;;;;;;5051138;28;20320;-86
2023/06/28 01:34:51;;;;;;;1.92;1.80;;;;;;;;;;5052138;28;20339;-85
2023/06/28 01:37:18;;;;;;;3.00;1.73;;;;;;;;;;5055185;28;20687;-86
2023/06/28 01:39:46;;;;;;;3.55;1.83;;;;;;;;;;5054959;28;20742;-85
2023/06/28 01:42:14;;;;;;;4.00;1.80;;;;;;;;;;5055418;28;20508;-85
2023/06/28 01:44:41;;;;;;;2.85;1.67;;;;;;;;;;5054811;28;20244;-86
2023/06/28 01:47:08;;;;;;;1.50;1.40;;;;;;;;;;5055020;28;20210;-86
2023/06/28 01:49:36;;;;;;;6.85;2.00;;;;;;;;;;5055121;28;20241;-86
2023/06/28 01:52:04;;;;;;;4.88;1.63;;;;;;;;;;5055075;28;20312;-86
2023/06/28 01:54:32;;;;;;;3.72;1.90;;;;;;;;;;5054659;28;20244;-86
2023/06/28 01:56:59;;;;;;;2.63;1.48;;;;;;;;;;5054802;28;20301;-86
2023/06/28 01:59:27;;;;;;;5.18;1.83;;;;;;;;;;5055920;28;20245;-86
2023/06/28 02:01:55;;;;;;;2.80;1.67;;;;;;;;;;5036329;28;20306;-85
2023/06/28 02:04:22;;;;;;;5.63;2.05;;;;;;;;;;5034554;28;20234;-86
2023/06/28 02:06:49;;;;;;;1.98;1.63;;;;;;;;;;5035080;28;20209;-86
2023/06/28 02:09:16;;;;;;;2.25;1.63;;;;;;;;;;5034553;28;20242;-86
2023/06/28 02:11:43;;;;;;;4.35;1.52;;;;;;;;;;5035069;28;20233;-85
2023/06/28 02:14:10;;;;;;;6.32;1.83;;;;;;;;;;5034660;28;20242;-87
2023/06/28 02:16:41;;;;;;;4.47;2.00;;;;;;;;;;5034900;28;20206;-86
2023/06/28 02:19:11;;;;;;;1.77;1.63;;;;;;;;;;5034186;28;20234;-86
2023/06/28 02:21:40;;;;;;;2.25;1.90;;;;;;;;;;5034464;28;20198;-86
2023/06/28 02:24:08;;;;;;;5.82;1.83;;;;;;;;;;5034183;28;20308;-86
2023/06/28 02:26:35;;;;;;;1.70;1.60;;;;;;;;;;5034570;28;20242;-87
2023/06/28 02:29:02;;;;;;;3.78;1.77;;;;;;;;;;5034018;28;20261;-86
2023/06/28 02:31:29;;;;;;;4.00;2.03;;;;;;;;;;5034719;28;20213;-85
2023/06/28 02:33:58;;;;;;;2.35;1.73;;;;;;;;;;5033743;28;20239;-85
2023/06/28 02:36:25;;;;;;;4.15;2.08;;;;;;;;;;5034575;28;20210;-85
2023/06/28 02:38:52;;;;;;;4.00;1.90;;;;;;;;;;5033704;28;20301;-85
2023/06/28 02:41:19;;;;;;;2.00;1.88;;;;;;;;;;5034543;28;20226;-85
2023/06/28 02:43:46;;;;;;;4.93;2.00;;;;;;;;;;5033844;28;20263;-86
2023/06/28 02:46:13;;;;;;;1.75;1.65;;;;;;;;;;5033971;28;20206;-86
2023/06/28 02:48:40;;;;;;;4.20;2.15;;;;;;;;;;5033515;28;20654;-85
2023/06/28 02:51:09;;;;;;;4.63;1.98;;;;;;;;;;5033966;28;20214;-86
2023/06/28 02:53:36;;;;;;;4.22;3.47;;;;;;;;;;5033522;28;20245;-86
2023/06/28 02:56:03;;;;;;;6.57;2.28;;;;;;;;;;5034073;28;20214;-86
2023/06/28 02:58:30;;;;;;;5.00;1.83;;;;;;;;;;5033241;28;20650;-86
2023/06/28 03:00:58;;;;;;;4.60;2.33;;;;;;;;;;5036096;28;20211;-86
2023/06/28 03:03:25;;;;;;;2.22;1.85;;;;;;;;;;5033880;28;20322;-86
2023/06/28 03:05:52;;;;;;;5.00;2.05;;;;;;;;;;5033799;28;20219;-85
2023/06/28 03:08:20;;;;;;;3.63;2.28;;;;;;;;;;5033177;28;20246;-85
2023/06/28 03:10:47;;;;;;;3.58;2.00;;;;;;;;;;5033977;28;20218;-86
2023/06/28 03:13:14;;;;;;;2.63;1.85;;;;;;;;;;5033240;28;20250;-86
2023/06/28 03:15:42;;;;;;;2.78;1.80;;;;;;;;;;5033765;28;20693;-85
2023/06/28 03:18:09;;;;;;;3.08;2.00;;;;;;;;;;5033601;28;20619;-86
2023/06/28 03:20:36;;;;;;;2.23;2.03;;;;;;;;;;5034247;28;20203;-86
2023/06/28 03:23:04;;;;;;;4.13;2.20;;;;;;;;;;5033384;28;20226;-86
2023/06/28 03:25:32;;;;;;;5.00;2.20;;;;;;;;;;5033785;28;20277;-86
2023/06/28 03:27:59;;;;;;;2.80;2.00;;;;;;;;;;5033022;28;20210;-86
2023/06/28 03:30:26;;;;;;;2.30;1.92;;;;;;;;;;5033564;28;20203;-86
2023/06/28 03:32:53;;;;;;;5.55;2.17;;;;;;;;;;5035636;28;20599;-86
2023/06/28 03:35:20;;;;;;;8.07;3.08;;;;;;;;;;5033041;28;20704;-85
2023/06/28 03:37:51;;;;;;;3.47;2.10;;;;;;;;;;5032909;28;20707;-85
2023/06/28 03:40:18;;;;;;;3.50;1.90;;;;;;;;;;5032816;28;20266;-86
2023/06/28 03:42:47;;;;;;;2.87;2.10;;;;;;;;;;5033237;28;20226;-84
2023/06/28 03:45:15;;;;;;;2.85;1.85;;;;;;;;;;5033077;28;20237;-84
2023/06/28 03:47:42;;;;;;;4.17;2.20;;;;;;;;;;5032910;28;20199;-84
2023/06/28 03:50:09;;;;;;;2.67;2.20;;;;;;;;;;5032460;28;20242;-84
2023/06/28 03:52:36;;;;;;;4.47;2.40;;;;;;;;;;5033250;28;20230;-84
2023/06/28 03:55:04;;;;;;;4.95;2.13;;;;;;;;;;5034594;28;20246;-85
2023/06/28 03:57:31;;;;;;;5.20;2.15;;;;;;;;;;5035744;28;20210;-86
2023/06/28 03:59:59;;;;;;;11.73;2.93;;;;;;;;;;5032568;28;20242;-86
2023/06/28 04:02:27;;;;;;;5.03;3.03;;;;;;;;;;5032897;28;20250;-86
2023/06/28 04:04:55;;;;;;;2.80;2.00;;;;;;;;;;5032110;28;20267;-86
2023/06/28 04:07:24;;;;;;;2.90;2.30;;;;;;;;;;5033100;28;20244;-86
2023/06/28 04:09:51;;;;;;;4.03;2.30;;;;;;;;;;5032086;28;20241;-85
2023/06/28 04:12:18;;;;;;;5.53;1.80;;;;;;;;;;5032255;28;20281;-86
2023/06/28 04:14:46;;;;;;;3.33;2.20;;;;;;;;;;5032560;28;20234;-86
2023/06/28 04:17:14;;;;;;;2.53;2.10;;;;;;;;;;5033224;28;20214;-86
2023/06/28 04:19:41;;;;;;;4.60;2.20;;;;;;;;;;5031853;28;20238;-86
2023/06/28 04:22:08;;;;;;;2.67;1.97;;;;;;;;;;5031882;28;20244;-86
2023/06/28 04:24:35;;;;;;;4.20;2.20;;;;;;;;;;5031971;28;20644;-86
2023/06/28 04:27:02;;;;;;;4.50;2.70;;;;;;;;;;5032403;28;20207;-86
2023/06/28 04:29:29;;;;;;;3.63;2.10;;;;;;;;;;5031849;28;20242;-86
2023/06/28 04:32:00;;;;;;;3.50;2.33;;;;;;;;;;5032152;28;20238;-87
2023/06/28 04:34:29;;;;;;;4.63;2.23;;;;;;;;;;5031696;28;20310;-85
2023/06/28 04:36:58;;;;;;;3.73;2.83;;;;;;;;;;5031914;28;20206;-85
2023/06/28 04:39:25;;;;;;;2.27;2.10;;;;;;;;;;5031544;28;20333;-85
2023/06/28 04:41:52;;;;;;;2.70;2.50;;;;;;;;;;5032155;28;20207;-86
2023/06/28 04:44:20;;;;;;;2.70;2.20;;;;;;;;;;5031798;28;20243;-85
2023/06/28 04:46:48;;;;;;;3.50;2.30;;;;;;;;;;5031570;28;20210;-85
2023/06/28 04:49:15;;;;;;;3.67;2.30;;;;;;;;;;5031471;28;20662;-85
2023/06/28 04:51:43;;;;;;;4.63;2.30;;;;;;;;;;5031863;28;20293;-85
2023/06/28 04:54:10;;;;;;;3.03;2.70;;;;;;;;;;5031680;28;20262;-85
2023/06/28 04:56:38;;;;;;;2.90;2.07;;;;;;;;;;5031855;28;20210;-86
2023/06/28 04:59:05;;;;;;;2.80;2.30;;;;;;;;;;5031246;28;20234;-85
2023/06/28 05:01:34;;;;;;;4.67;2.40;;;;;;;;;;5047511;28;20213;-86
2023/06/28 05:04:01;;;;;;;3.33;2.23;;;;;;;;;;5052062;28;20312;-86
2023/06/28 05:06:29;;;;;;;3.03;2.27;;;;;;;;;;5051838;28;20202;-86
2023/06/28 05:08:57;;;;;;;7.13;2.63;;;;;;;;;;5051629;28;20295;-86
2023/06/28 05:11:24;;;;;;;3.90;2.03;;;;;;;;;;5051817;28;20244;-85
2023/06/28 05:13:51;;;;;;;2.97;2.37;;;;;;;;;;5051234;28;20241;-86
2023/06/28 05:16:18;;;;;;;7.50;2.20;;;;;;;;;;5051913;28;20213;-86
2023/06/28 05:18:45;;;;;;;3.77;2.23;;;;;;;;;;5051853;28;20246;-85
2023/06/28 05:21:12;;;;;;;6.77;2.60;;;;;;;;;;5053914;28;20206;-86
2023/06/28 05:23:39;;;;;;;3.83;2.47;;;;;;;;;;5051297;28;20249;-86
2023/06/28 05:26:08;;;;;;;3.73;2.07;;;;;;;;;;5051595;28;20590;-84
2023/06/28 05:28:35;;;;;;;6.30;2.20;;;;;;;;;;5050922;28;20236;-84
2023/06/28 05:31:02;;;;;;;4.87;2.00;;;;;;;;;;5051383;28;20778;-85
2023/06/28 05:33:29;;;;;;;2.93;1.90;;;;;;;;;;5050873;28;20241;-85
2023/06/28 05:35:56;;;;;;;6.67;2.47;;;;;;;;;;5051703;28;20209;-84
2023/06/28 05:38:23;;;;;;;4.88;2.58;;;;;;;;;;5051119;28;20244;-84
2023/06/28 05:40:54;;;;;;;3.60;2.30;;;;;;;;;;5051555;28;20198;-84
2023/06/28 05:43:22;;;;;;;6.10;2.67;;;;;;;;;;5050801;28;20242;-84
2023/06/28 05:45:50;;;;;;;7.43;2.60;;;;;;;;;;5051320;28;20217;-84
2023/06/28 05:48:17;;;;;;;5.77;2.33;;;;;;;;;;5050624;28;20225;-84
2023/06/28 05:50:45;;;;;;;8.53;2.60;;;;;;;;;;5051091;28;20217;-84
2023/06/28 05:53:12;;;;;;;4.97;2.33;;;;;;;;;;5050624;28;20733;-84
2023/06/28 05:55:39;;;;;;;3.83;2.90;;;;;;;;;;5051174;28;20422;-84
2023/06/28 05:58:06;;;;;;;10.77;2.90;;;;;;;;;;5050364;28;20216;-84
2023/06/28 06:00:35;;;;;;;4.60;2.42;;;;;;;;;;5051141;28;20207;-85
2023/06/28 06:03:02;;;;;;;5.07;2.40;;;;;;;;;;5050702;28;20716;-85
2023/06/28 06:05:29;;;;;;;4.68;2.38;;;;;;;;;;5051730;28;20220;-86
2023/06/28 06:07:57;;;;;;;6.13;2.60;;;;;;;;;;5051477;28;20214;-87
2023/06/28 06:10:24;;;;;;;6.28;2.47;;;;;;;;;;5051414;28;20244;-86
2023/06/28 06:12:53;;;;;;;5.82;2.47;;;;;;;;;;5051637;28;20638;-87
2023/06/28 06:15:20;;;;;;;8.57;2.95;;;;;;;;;;5050879;28;20234;-86
2023/06/28 06:17:48;;;;;;;5.10;2.45;;;;;;;;;;5052090;28;20217;-86
2023/06/28 06:20:16;;;;;;;5.68;2.60;;;;;;;;;;5051797;28;20245;-84
2023/06/28 06:22:43;;;;;;;3.25;2.20;;;;;;;;;;5055149;28;20283;-85
2023/06/28 06:25:10;;;;;;;4.18;2.85;;;;;;;;;;5054566;28;20244;-85
2023/06/28 06:27:37;;;;;;;6.20;2.60;;;;;;;;;;5054895;28;20194;-85
2023/06/28 06:30:04;;;;;;;7.82;2.60;;;;;;;;;;5054253;28;20228;-84
2023/06/28 06:32:31;;;;;;;4.32;2.28;;;;;;;;;;5055088;28;20249;-85
2023/06/28 06:35:01;;;;;;;3.23;2.20;;;;;;;;;;5054589;28;20238;-85
2023/06/28 06:37:28;;;;;;;3.50;2.60;;;;;;;;;;5054928;28;20217;-85
2023/06/28 06:39:55;;;;;;;2.83;2.37;;;;;;;;;;5054284;28;20233;-84
2023/06/28 06:42:22;;;;;;;4.97;2.28;;;;;;;;;;5054944;28;20237;-85
2023/06/28 06:44:49;;;;;;;4.10;2.47;;;;;;;;;;5054108;28;20226;-84
2023/06/28 06:47:16;;;;;;;4.45;2.33;;;;;;;;;;5055282;28;20206;-85
2023/06/28 06:49:43;;;;;;;5.05;2.50;;;;;;;;;;5054234;28;20234;-85
2023/06/28 06:52:12;;;;;;;2.47;2.28;;;;;;;;;;5055008;28;20237;-86
2023/06/28 06:54:39;;;;;;;3.22;2.10;;;;;;;;;;5054451;28;20720;-85
2023/06/28 06:57:06;;;;;;;2.87;1.87;;;;;;;;;;5055049;28;20206;-85
2023/06/28 06:59:33;;;;;;;4.30;2.08;;;;;;;;;;5054059;28;20230;-85
2023/06/28 07:02:00;;;;;;;5.17;1.90;;;;;;;;;;5054595;28;20623;-85
2023/06/28 07:04:27;;;;;;;3.33;1.80;;;;;;;;;;5054633;28;20238;-84
2023/06/28 07:06:55;;;;;;;3.90;2.00;;;;;;;;;;5054108;28;20687;-84
2023/06/28 07:09:24;;;;;;;4.10;2.85;;;;;;;;;;5058078;28;20266;-85
2023/06/28 07:11:51;;;;;;;3.38;1.92;;;;;;;;;;5055654;28;20209;-85
2023/06/28 07:14:18;;;;;;;4.03;1.75;;;;;;;;;;5053941;28;20236;-85
2023/06/28 07:16:45;;;;;;;3.15;2.28;;;;;;;;;;5054339;28;20200;-85
2023/06/28 07:19:12;;;;;;;3.65;2.08;;;;;;;;;;5054209;28;20238;-85
2023/06/28 07:21:40;;;;;;;6.07;2.08;;;;;;;;;;5054270;28;20205;-86
2023/06/28 07:24:08;;;;;;;2.15;1.85;;;;;;;;;;5053665;28;20311;-85
2023/06/28 07:26:36;;;;;;;7.63;2.47;;;;;;;;;;5054461;28;20213;-85
2023/06/28 07:29:03;;;;;;;3.10;1.77;;;;;;;;;;5053555;28;20245;-85
2023/06/28 07:31:30;;;;;;;4.72;1.88;;;;;;;;;;5053638;28;20202;-85
2023/06/28 07:33:57;;;;;;;5.00;2.30;;;;;;;;;;5052641;28;20241;-85
2023/06/28 07:36:25;;;;;;;3.42;1.67;;;;;;;;;;5053721;28;20232;-85
2023/06/28 07:38:52;;;;;;;4.25;1.73;;;;;;;;;;5053093;28;20234;-86
2023/06/28 07:41:19;;;;;;;3.83;2.03;;;;;;;;;;5055411;28;20695;-84
2023/06/28 07:43:47;;;;;;;4.25;2.03;;;;;;;;;;5053178;28;20241;-85
2023/06/28 07:46:14;;;;;;;1.98;1.83;;;;;;;;;;5053797;28;20206;-85
2023/06/28 07:48:41;;;;;;;3.95;2.22;;;;;;;;;;5053504;28;20230;-85
2023/06/28 07:51:09;;;;;;;4.80;1.83;;;;;;;;;;5053992;28;20210;-85
2023/06/28 07:53:36;;;;;;;4.85;2.47;;;;;;;;;;5053185;28;20234;-85
2023/06/28 07:56:03;;;;;;;2.92;2.08;;;;;;;;;;5054015;28;20213;-85
2023/06/28 07:58:30;;;;;;;3.53;2.10;;;;;;;;;;5053818;28;20336;-85
2023/06/28 08:00:59;;;;;;;4.90;2.15;;;;;;;;;;5054043;28;20233;-85
2023/06/28 08:03:26;;;;;;;3.10;1.92;;;;;;;;;;5054403;28;20237;-86
2023/06/28 08:05:53;;;;;;;5.15;3.08;;;;;;;;;;5054156;28;20206;-86
2023/06/28 08:08:20;;;;;;;2.67;1.90;;;;;;;;;;5053166;28;20233;-86
2023/06/28 08:10:47;;;;;;;2.45;2.25;;;;;;;;;;5053696;28;20205;-85
2023/06/28 08:13:14;;;;;;;5.82;2.20;;;;;;;;;;5052858;28;20225;-85
2023/06/28 08:15:42;;;;;;;3.65;2.38;;;;;;;;;;5053544;28;20217;-86
2023/06/28 08:18:12;;;;;;;8.50;1.92;;;;;;;;;;5052853;28;20209;-85
2023/06/28 08:20:40;;;;;;;5.13;2.17;;;;;;;;;;5053083;28;20264;-85
2023/06/28 08:23:07;;;;;;;3.80;1.70;;;;;;;;;;5052791;28;20613;-86
2023/06/28 08:25:34;;;;;;;5.93;1.90;;;;;;;;;;5054387;28;20213;-86
2023/06/28 08:28:01;;;;;;;2.63;1.70;;;;;;;;;;5052604;28;20703;-85
2023/06/28 08:30:28;;;;;;;2.40;1.88;;;;;;;;;;5053052;28;20661;-86
2023/06/28 08:32:55;;;;;;;4.70;2.30;;;;;;;;;;5053181;28;20230;-86
2023/06/28 08:35:23;;;;;;;2.70;1.90;;;;;;;;;;5052300;28;20241;-85
2023/06/28 08:37:50;;;;;;;4.30;2.30;;;;;;;;;;5052882;28;20201;-86
2023/06/28 08:40:18;;;;;;;5.53;1.95;;;;;;;;;;5052173;28;20230;-86
2023/06/28 08:42:46;;;;;;;3.88;2.28;;;;;;;;;;5052582;28;20226;-86
2023/06/28 08:45:15;;;;;;;4.03;2.08;;;;;;;;;;5052113;28;20234;-85
2023/06/28 08:47:42;;;;;;;4.13;2.13;;;;;;;;;;5052943;28;20214;-85
2023/06/28 08:50:11;;;;;;;4.25;1.90;;;;;;;;;;5052523;28;20234;-86
2023/06/28 08:52:40;;;;;;;1.65;1.55;;;;;;;;;;5052838;28;20743;-85
2023/06/28 08:55:08;;;;;;;5.28;1.80;;;;;;;;;;5052069;28;20244;-86
2023/06/28 08:57:36;;;;;;;4.93;2.15;;;;;;;;;;5052676;28;20213;-86
2023/06/28 09:00:05;;;;;;;4.47;1.73;;;;;;;;;;5052510;28;20582;-86
2023/06/28 09:02:33;;;;;;;2.63;1.88;;;;;;;;;;5054079;28;20321;-85
2023/06/28 09:05:01;;;;;;;3.17;1.80;;;;;;;;;;5053592;28;20696;-85
2023/06/28 09:07:28;;;;;;;3.28;1.75;;;;;;;;;;5054162;28;20645;-86
2023/06/28 09:09:57;;;;;;;7.20;1.98;;;;;;;;;;5053702;28;20714;-86
2023/06/28 09:12:24;;;;;;;6.32;2.20;;;;;;;;;;5054355;28;20222;-87
2023/06/28 09:14:51;;;;;;;2.70;1.77;;;;;;;;;;5053552;28;20727;-87
2023/06/28 09:17:19;;;;;;;5.32;1.80;;;;;;;;;;5053750;28;20267;-86
2023/06/28 09:19:46;;;;;;;2.60;1.90;;;;;;;;;;5052970;28;20234;-86
2023/06/28 09:22:13;;;;;;;3.78;2.05;;;;;;;;;;5054278;28;20225;-86
2023/06/28 09:24:40;;;;;;;5.15;2.03;;;;;;;;;;5053521;28;20234;-86
2023/06/28 09:27:11;;;;;;;2.47;1.80;;;;;;;;;;5054479;28;20202;-86
2023/06/28 09:29:38;;;;;;;2.53;1.67;;;;;;;;;;5054049;28;20238;-86
2023/06/28 09:32:06;;;;;;;3.83;3.05;;;;;;;;;;5055174;28;20234;-86
2023/06/28 09:34:33;;;;;;;6.72;2.17;;;;;;;;;;5053900;28;20236;-86
2023/06/28 09:37:00;;;;;;;3.17;1.70;;;;;;;;;;5053044;28;20699;-86
2023/06/28 09:39:27;;;;;;;3.28;2.13;;;;;;;;;;5052914;28;20291;-86
2023/06/28 09:41:55;;;;;;;4.57;1.65;;;;;;;;;;5052527;28;20234;-86
2023/06/28 09:44:29;;;;;;;5.63;2.08;;;;;;;;;;5051505;28;20238;-86
2023/06/28 09:47:00;;;;;;;3.22;1.73;;;;;;;;;;5051363;28;20237;-85
2023/06/28 09:49:28;;;;;;;6.63;2.03;;;;;;;;;;5051539;28;20241;-86
2023/06/28 09:52:00;;;;;;;5.75;1.92;;;;;;;;;;5052344;28;20226;-87
2023/06/28 09:54:34;;;;;;;3.47;1.80;;;;;;;;;;5052871;28;20312;-87
2023/06/28 09:57:01;;;;;;;4.47;1.88;;;;;;;;;;5056376;28;20209;-88
2023/06/28 09:59:32;;;;;;;3.40;1.70;;;;;;;;;;5056675;28;20234;-85
2023/06/28 10:01:59;;;;;;;4.32;1.95;;;;;;;;;;5056158;28;20241;-87
2023/06/28 10:04:29;;;;;;;2.40;1.60;;;;;;;;;;5056252;28;20230;-85
2023/06/28 10:06:58;;;;;;;3.55;1.70;;;;;;;;;;5055598;28;20279;-85
2023/06/28 10:09:25;;;;;;;2.63;1.75;;;;;;;;;;5055772;28;20233;-86
2023/06/28 10:11:53;;;;;;;4.60;1.98;;;;;;;;;;5056938;28;20217;-86
2023/06/28 10:14:21;;;;;;;4.32;1.95;;;;;;;;;;5056222;28;20234;-86
2023/06/28 10:16:50;;;;;;;3.80;1.90;;;;;;;;;;5057205;28;20202;-87
2023/06/28 10:19:17;;;;;;;4.45;2.10;;;;;;;;;;5056263;28;20238;-86
2023/06/28 10:21:45;;;;;;;1.95;1.70;;;;;;;;;;5056151;28;20230;-85
2023/06/28 10:24:12;;;;;;;1.70;1.60;;;;;;;;;;5055671;28;20242;-86
2023/06/28 10:26:39;;;;;;;3.67;1.70;;;;;;;;;;5056096;28;20213;-86
2023/06/28 10:29:06;;;;;;;3.92;1.80;;;;;;;;;;5055295;28;20260;-86
2023/06/28 10:31:33;;;;;;;2.55;1.67;;;;;;;;;;5056503;28;20206;-86
2023/06/28 10:34:02;;;;;;;3.20;1.90;;;;;;;;;;5055404;28;20730;-86
2023/06/28 10:36:30;;;;;;;3.13;1.90;;;;;;;;;;5056163;28;20215;-85
2023/06/28 10:38:57;;;;;;;3.33;2.03;;;;;;;;;;5055297;28;20234;-86
2023/06/28 10:41:24;;;;;;;3.67;1.63;;;;;;;;;;5056011;28;20225;-87
2023/06/28 10:44:02;;;;;;;4.18;1.85;;;;;;;;;;5055396;28;20242;-87
2023/06/28 10:46:29;;;;;;;3.78;1.48;;;;;;;;;;5055626;28;20209;-86
2023/06/28 10:48:59;;;;;;;2.45;1.95;;;;;;;;;;5054886;28;20237;-86
2023/06/28 10:51:29;;;;;;;4.00;1.90;;;;;;;;;;5054821;28;20209;-86
2023/06/28 10:54:07;;;;;;;2.67;2.08;;;;;;;;;;5054605;28;20587;-86
2023/06/28 10:56:38;;;;;;;3.92;1.70;;;;;;;;;;5055100;28;20644;-85
2023/06/28 10:59:06;;;;;;;6.05;1.85;;;;;;;;;;5054437;28;20241;-86
2023/06/28 11:01:34;;;;;;;3.60;1.77;;;;;;;;;;5055297;28;20230;-87
2023/06/28 11:04:16;;;;;;;4.90;2.30;;;;;;;;;;5054324;28;20245;-87
2023/06/28 11:06:44;;;;;;;4.80;2.58;;;;;;;;;;5051809;28;20202;-86
2023/06/28 11:09:13;;;;;;;3.20;1.80;;;;;;;;;;5054378;28;20654;-86
2023/06/28 11:11:42;;;;;;;3.53;2.20;;;;;;;;;;5054491;28;20256;-87
2023/06/28 11:14:18;;;;;;;5.43;1.83;;;;;;;;;;5054454;28;20310;-87
2023/06/28 11:16:48;;;;;;;3.05;1.88;;;;;;;;;;5053682;28;20212;-86
2023/06/28 11:19:16;;;;;;;3.53;1.95;;;;;;;;;;5053855;28;20265;-86
2023/06/28 11:21:48;;;;;;;4.20;2.08;;;;;;;;;;5054206;28;20230;-87
2023/06/28 11:24:15;;;;;;;3.05;1.80;;;;;;;;;;5054417;28;20237;-88
2023/06/28 11:26:43;;;;;;;3.38;1.52;;;;;;;;;;5054557;28;20209;-86
2023/06/28 11:29:17;;;;;;;3.13;2.00;;;;;;;;;;5053863;28;20234;-87
2023/06/28 11:31:47;;;;;;;5.05;2.20;;;;;;;;;;5054420;28;20661;-88
2023/06/28 11:34:15;;;;;;;4.68;2.10;;;;;;;;;;5054055;28;20244;-87
2023/06/28 11:36:44;;;;;;;5.00;1.75;;;;;;;;;;5053968;28;20205;-87
2023/06/28 11:39:14;;;;;;;3.35;2.05;;;;;;;;;;5053222;28;20234;-87
2023/06/28 11:41:43;;;;;;;3.20;1.90;;;;;;;;;;5054073;28;20233;-86
2023/06/28 11:44:11;;;;;;;3.70;1.95;;;;;;;;;;5053086;28;20315;-87
2023/06/28 11:46:39;;;;;;;3.58;1.83;;;;;;;;;;5053435;28;20206;-86
2023/06/28 11:49:06;;;;;;;3.90;1.95;;;;;;;;;;5053403;28;20241;-87
2023/06/28 11:51:33;;;;;;;3.78;1.65;;;;;;;;;;5054454;28;20215;-84
2023/06/28 11:54:02;;;;;;;5.00;2.03;;;;;;;;;;5052800;28;21048;-87
2023/06/28 11:56:36;;;;;;;2.60;1.85;;;;;;;;;;5053832;28;20811;-88
2023/06/28 11:59:13;;;;;;;4.15;1.88;;;;;;;;;;5053811;28;20238;-86
2023/06/28 12:01:40;;;;;;;2.58;1.85;;;;;;;;;;5053600;28;20265;-87
2023/06/28 12:04:17;;;;;;;7.15;1.83;;;;;;;;;;5052946;28;20230;-87
2023/06/28 12:06:44;;;;;;;3.95;1.80;;;;;;;;;;5054667;28;20212;-86
2023/06/28 12:09:20;;;;;;;8.70;2.70;;;;;;;;;;5055324;28;20240;-87
2023/06/28 12:11:54;;;;;;;4.30;2.20;;;;;;;;;;5053956;28;20202;-87
2023/06/28 12:14:21;;;;;;;3.65;1.85;;;;;;;;;;5053140;28;20233;-87
2023/06/28 12:16:50;;;;;;;3.90;1.85;;;;;;;;;;5054971;28;20202;-87
2023/06/28 12:19:17;;;;;;;3.22;1.65;;;;;;;;;;5054025;28;20230;-88
2023/06/28 12:21:45;;;;;;;3.15;2.22;;;;;;;;;;5057164;28;20226;-88
2023/06/28 12:24:13;;;;;;;3.80;2.00;;;;;;;;;;5056650;28;20244;-86
2023/06/28 12:26:42;;;;;;;4.38;1.63;;;;;;;;;;5055209;28;20818;-86
2023/06/28 12:29:09;;;;;;;3.22;2.10;;;;;;;;;;5054547;28;20244;-87
2023/06/28 12:31:47;;;;;;;3.42;1.98;;;;;;;;;;5054589;28;20289;-86
2023/06/28 12:34:14;;;;;;;5.07;1.60;;;;;;;;;;5053278;28;20289;-88
2023/06/28 12:36:41;;;;;;;5.55;2.10;;;;;;;;;;5054782;28;20202;-87
2023/06/28 12:39:08;;;;;;;5.05;2.15;;;;;;;;;;5055067;28;20522;-88
2023/06/28 12:41:36;;;;;;;1.63;1.52;;;;;;;;;;5054559;28;20652;-87
2023/06/28 12:44:04;;;;;;;4.20;2.28;;;;;;;;;;5053476;28;20626;-87
2023/06/28 12:46:31;;;;;;;3.55;1.60;;;;;;;;;;5053858;28;20214;-87
2023/06/28 12:49:04;;;;;;;3.50;1.80;;;;;;;;;;5053388;28;20237;-87
2023/06/28 12:51:31;;;;;;;4.82;1.90;;;;;;;;;;5053962;28;20205;-88
2023/06/28 12:53:58;;;;;;;3.42;1.83;;;;;;;;;;5053011;28;20739;-86
2023/06/28 12:56:26;;;;;;;3.60;2.03;;;;;;;;;;5054272;28;20734;-88
2023/06/28 12:58:53;;;;;;;3.92;2.15;;;;;;;;;;5052764;28;20252;-87
2023/06/28 13:01:22;;;;;;;3.03;1.70;;;;;;;;;;5053910;28;20696;-87
2023/06/28 13:03:54;;;;;;;2.63;1.95;;;;;;;;;;5053374;28;20325;-88
2023/06/28 13:06:21;;;;;;;5.68;2.30;;;;;;;;;;5054413;28;20564;-87
2023/06/28 13:08:48;;;;;;;4.53;1.88;;;;;;;;;;5053208;28;20235;-87
2023/06/28 13:11:15;;;;;;;4.68;1.60;;;;;;;;;;5053584;28;20248;-86
2023/06/28 13:13:42;;;;;;;2.17;1.98;;;;;;;;;;5052966;28;20244;-87
2023/06/28 13:16:09;;;;;;;4.70;1.92;;;;;;;;;;5053500;28;20206;-86
2023/06/28 13:18:38;;;;;;;4.50;2.05;;;;;;;;;;5054107;28;20241;-87
2023/06/28 13:21:05;;;;;;;3.80;1.55;;;;;;;;;;5052504;28;20584;-87
2023/06/28 13:23:32;;;;;;;3.00;1.55;;;;;;;;;;5053104;28;20233;-87
2023/06/28 13:25:59;;;;;;;1.83;1.50;;;;;;;;;;5052288;28;20229;-87
2023/06/28 13:28:26;;;;;;;4.32;1.73;;;;;;;;;;5052169;28;20237;-87
2023/06/28 13:30:53;;;;;;;2.78;1.80;;;;;;;;;;5056224;28;20206;-87
2023/06/28 13:33:21;;;;;;;3.03;1.98;;;;;;;;;;5056624;28;20233;-88
2023/06/28 13:35:49;;;;;;;3.67;1.75;;;;;;;;;;5058327;28;20568;-88
2023/06/28 13:38:16;;;;;;;5.97;2.00;;;;;;;;;;5057314;28;20296;-87
2023/06/28 13:40:43;;;;;;;4.45;2.05;;;;;;;;;;5058108;28;20234;-88
2023/06/28 13:43:11;;;;;;;3.58;1.73;;;;;;;;;;5057475;28;20225;-88
2023/06/28 13:45:38;;;;;;;3.30;1.95;;;;;;;;;;5061530;28;20206;-87
2023/06/28 13:48:05;;;;;;;3.03;1.75;;;;;;;;;;5058244;28;20214;-87
2023/06/28 13:50:32;;;;;;;4.00;1.60;;;;;;;;;;5057028;28;20229;-87
2023/06/28 13:53:01;;;;;;;2.97;1.70;;;;;;;;;;5056248;28;20595;-86
2023/06/28 13:55:28;;;;;;;4.43;2.22;;;;;;;;;;5057914;28;20209;-89
2023/06/28 13:57:55;;;;;;;2.45;1.70;;;;;;;;;;5056803;28;20202;-87
2023/06/28 14:00:22;;;;;;;2.78;1.70;;;;;;;;;;5048756;28;20244;-86
2023/06/28 14:02:50;;;;;;;1.92;1.45;;;;;;;;;;5035971;28;20230;-87
2023/06/28 14:05:17;;;;;;;4.35;1.83;;;;;;;;;;5036118;28;20234;-87
2023/06/28 14:07:44;;;;;;;4.95;1.75;;;;;;;;;;5034768;28;20213;-87
2023/06/28 14:10:13;;;;;;;2.20;1.50;;;;;;;;;;5034265;28;20230;-87
2023/06/28 14:12:41;;;;;;;2.45;1.80;;;;;;;;;;5035228;28;20222;-86
2023/06/28 14:15:09;;;;;;;3.65;1.63;;;;;;;;;;5035959;28;20308;-87
2023/06/28 14:17:36;;;;;;;1.73;1.55;;;;;;;;;;5036058;28;20210;-88
2023/06/28 14:20:03;;;;;;;2.72;1.42;;;;;;;;;;5035658;28;20242;-87
2023/06/28 14:22:30;;;;;;;3.25;1.73;;;;;;;;;;5035373;28;20743;-88
2023/06/28 14:24:57;;;;;;;2.60;1.80;;;;;;;;;;5034985;28;20317;-87
2023/06/28 14:27:26;;;;;;;4.55;1.70;;;;;;;;;;5035070;28;20207;-87
2023/06/28 14:29:53;;;;;;;1.83;1.30;;;;;;;;;;5034669;28;20242;-86
2023/06/28 14:32:21;;;;;;;4.40;2.80;;;;;;;;;;5034818;28;20256;-87
2023/06/28 14:34:48;;;;;;;3.05;1.30;;;;;;;;;;5034977;28;20337;-87
2023/06/28 14:37:15;;;;;;;2.28;1.70;;;;;;;;;;5035522;28;20211;-87
2023/06/28 14:39:42;;;;;;;1.55;1.45;;;;;;;;;;5034370;28;20239;-87
2023/06/28 14:42:09;;;;;;;2.10;1.55;;;;;;;;;;5034226;28;20227;-87
2023/06/28 14:44:37;;;;;;;4.55;1.67;;;;;;;;;;5034222;28;20238;-86
2023/06/28 14:47:05;;;;;;;1.98;1.60;;;;;;;;;;5034851;28;20206;-87